Pagrindinis puslapis
METAR-TAF:

METAR-TAF

Oro uostai :

Nagpuras, Indija

platuma: 21-06N, ilguma: 079-03E, Aukštis: 308 m

Dabartinis oras

Ataskaita buvo paskelbta 31 minutes, ne 11:00 UTC
Ramus vėjas
Temperatūra 28°C
Drėgmė 45%
Slėgis 1013 hPa
Matomumas: 3000 m
Mažai debesys ne aukštis 10000 ft
migla

METAR: VANP 191100Z 00000KT 3000 HZ FEW100 28/15 Q1013 NOSIG

Laikas: 17:01 (11:31 UTC)

Prognozė

Ataskaita buvo paskelbta 3 valandos ir 31 minutes, ne 08:00 UTC
Prognozė galioja nuo 19 metu 09 UTC su 20 metu 18 UTC
Vėjas 3 kt iš Rytų/Šiaurės Rytų
Matomumas: 3000 m
migla

TAF: VANP 190800Z 1909/2018 06003KT 3000 HZ NSC

Orai ataskaitas ir orų prognozės (METAR, TAF).

turimą stotys yra geltonos ir raudonos taškus žemėlapyje.

Perkelti pele per norėdami pamatyti stoties vardą.

Tada spustelėkite, norėdami matyti oro stebėjimo ir prognozės.

Norėdami pakeisti žemėlapį: spustelėkite ant žalios mygtukų su juodo kryžiaus žemyn,; žalią mygtuką su brūkšneliu, jei norite nutolinti; arba žalių rodyklių gretimoms žemėlapius.


METAR-TAF: